Terminal Aerodrome Forecast
Issued by NWS

Home | Current Version | Previous Version | Text Only | Print | Product List | Glossary On
Versions: 1 2 3 4 5 6 7 8 9 10 11 12
000
FTUS45 KABQ 221100 RRA
TAFAEG
TAF
KAEG 221140Z 2212/2312 26009KT P6SM SCT250
     FM221530 29016G25KT P6SM FEW050 SCT120 SCT180
     FM221930 31028G39KT P6SM SCT060 SCT110 BKN140
     FM230300 33022G34KT P6SM SCT040 BKN100=

USA.gov is the U.S. government's official web portal to all federal, state and local government web resources and services.